sensor_id;sensor_type;location;lat;lon;timestamp;P1;durP1;ratioP1;P2;durP2;ratioP2
3735;SDS011;1883;48.202;16.310;2024-02-15T00:01:23;9.80;;;2.60;;
3735;SDS011;1883;48.202;16.310;2024-02-15T00:03:51;7.67;;;2.30;;
3735;SDS011;1883;48.202;16.310;2024-02-15T00:06:19;8.90;;;2.80;;
3735;SDS011;1883;48.202;16.310;2024-02-15T00:08:47;11.67;;;2.60;;
3735;SDS011;1883;48.202;16.310;2024-02-15T00:11:15;9.40;;;2.90;;
3735;SDS011;1883;48.202;16.310;2024-02-15T00:13:50;8.87;;;2.53;;
3735;SDS011;1883;48.202;16.310;2024-02-15T00:16:17;8.57;;;2.60;;
3735;SDS011;1883;48.202;16.310;2024-02-15T00:18:44;9.90;;;2.40;;
3735;SDS011;1883;48.202;16.310;2024-02-15T00:21:14;10.03;;;2.90;;
3735;SDS011;1883;48.202;16.310;2024-02-15T00:23:43;12.47;;;2.50;;
3735;SDS011;1883;48.202;16.310;2024-02-15T00:26:11;12.80;;;2.60;;
3735;SDS011;1883;48.202;16.310;2024-02-15T00:28:40;21.73;;;2.67;;
3735;SDS011;1883;48.202;16.310;2024-02-15T00:31:08;8.57;;;2.40;;
3735;SDS011;1883;48.202;16.310;2024-02-15T00:33:36;13.17;;;2.90;;
3735;SDS011;1883;48.202;16.310;2024-02-15T00:36:03;9.87;;;2.23;;
3735;SDS011;1883;48.202;16.310;2024-02-15T00:38:32;9.43;;;2.20;;
3735;SDS011;1883;48.202;16.310;2024-02-15T00:41:00;10.63;;;2.80;;
3735;SDS011;1883;48.202;16.310;2024-02-15T00:43:27;14.03;;;2.70;;
3735;SDS011;1883;48.202;16.310;2024-02-15T00:45:54;12.03;;;2.93;;
3735;SDS011;1883;48.202;16.310;2024-02-15T00:48:25;18.03;;;2.90;;
3735;SDS011;1883;48.202;16.310;2024-02-15T00:50:54;9.50;;;2.80;;
3735;SDS011;1883;48.202;16.310;2024-02-15T00:53:21;8.13;;;2.00;;
3735;SDS011;1883;48.202;16.310;2024-02-15T00:55:51;15.60;;;4.67;;
3735;SDS011;1883;48.202;16.310;2024-02-15T00:58:18;10.60;;;3.00;;
3735;SDS011;1883;48.202;16.310;2024-02-15T01:00:47;9.40;;;2.37;;
3735;SDS011;1883;48.202;16.310;2024-02-15T01:03:15;14.83;;;4.20;;
3735;SDS011;1883;48.202;16.310;2024-02-15T01:05:42;8.83;;;2.57;;
3735;SDS011;1883;48.202;16.310;2024-02-15T01:08:09;10.00;;;2.87;;
3735;SDS011;1883;48.202;16.310;2024-02-15T01:10:36;7.20;;;1.90;;
3735;SDS011;1883;48.202;16.310;2024-02-15T01:13:04;54.83;;;17.30;;
3735;SDS011;1883;48.202;16.310;2024-02-15T01:15:31;199.57;;;43.83;;
3735;SDS011;1883;48.202;16.310;2024-02-15T01:17:58;43.50;;;11.93;;
3735;SDS011;1883;48.202;16.310;2024-02-15T01:20:25;20.07;;;6.10;;
3735;SDS011;1883;48.202;16.310;2024-02-15T01:22:52;20.97;;;5.73;;
3735;SDS011;1883;48.202;16.310;2024-02-15T01:25:20;16.60;;;4.40;;
3735;SDS011;1883;48.202;16.310;2024-02-15T01:27:48;17.90;;;3.17;;
3735;SDS011;1883;48.202;16.310;2024-02-15T01:30:16;13.10;;;3.10;;
3735;SDS011;1883;48.202;16.310;2024-02-15T01:32:44;9.50;;;2.70;;
3735;SDS011;1883;48.202;16.310;2024-02-15T01:35:11;9.07;;;2.47;;
3735;SDS011;1883;48.202;16.310;2024-02-15T01:37:38;7.53;;;2.17;;
3735;SDS011;1883;48.202;16.310;2024-02-15T01:40:06;9.77;;;2.77;;
3735;SDS011;1883;48.202;16.310;2024-02-15T01:42:38;9.03;;;2.70;;
3735;SDS011;1883;48.202;16.310;2024-02-15T01:45:05;9.63;;;2.80;;
3735;SDS011;1883;48.202;16.310;2024-02-15T01:47:44;14.60;;;3.00;;
3735;SDS011;1883;48.202;16.310;2024-02-15T01:50:12;11.03;;;2.50;;
3735;SDS011;1883;48.202;16.310;2024-02-15T01:52:54;9.80;;;2.80;;
3735;SDS011;1883;48.202;16.310;2024-02-15T01:55:23;9.33;;;2.87;;
3735;SDS011;1883;48.202;16.310;2024-02-15T01:57:51;7.83;;;2.50;;
3735;SDS011;1883;48.202;16.310;2024-02-15T02:00:18;8.50;;;2.70;;
3735;SDS011;1883;48.202;16.310;2024-02-15T02:02:47;8.50;;;2.60;;
3735;SDS011;1883;48.202;16.310;2024-02-15T02:05:15;9.00;;;2.40;;
3735;SDS011;1883;48.202;16.310;2024-02-15T02:07:42;9.87;;;2.60;;
3735;SDS011;1883;48.202;16.310;2024-02-15T02:10:09;9.20;;;2.33;;
3735;SDS011;1883;48.202;16.310;2024-02-15T02:12:37;11.90;;;3.93;;
3735;SDS011;1883;48.202;16.310;2024-02-15T02:15:06;30.50;;;11.20;;
3735;SDS011;1883;48.202;16.310;2024-02-15T02:17:33;15.60;;;4.20;;
3735;SDS011;1883;48.202;16.310;2024-02-15T02:20:03;10.13;;;3.10;;
3735;SDS011;1883;48.202;16.310;2024-02-15T02:22:33;12.20;;;3.77;;
3735;SDS011;1883;48.202;16.310;2024-02-15T02:25:03;9.80;;;4.10;;
3735;SDS011;1883;48.202;16.310;2024-02-15T02:27:33;9.90;;;3.27;;
3735;SDS011;1883;48.202;16.310;2024-02-15T02:30:02;7.67;;;2.40;;
3735;SDS011;1883;48.202;16.310;2024-02-15T02:32:32;9.87;;;2.80;;
3735;SDS011;1883;48.202;16.310;2024-02-15T02:35:01;13.27;;;2.97;;
3735;SDS011;1883;48.202;16.310;2024-02-15T02:37:28;11.70;;;3.00;;
3735;SDS011;1883;48.202;16.310;2024-02-15T02:39:55;7.97;;;2.37;;
3735;SDS011;1883;48.202;16.310;2024-02-15T02:42:23;11.67;;;3.20;;
3735;SDS011;1883;48.202;16.310;2024-02-15T02:44:50;7.80;;;2.40;;
3735;SDS011;1883;48.202;16.310;2024-02-15T02:47:17;9.50;;;2.97;;
3735;SDS011;1883;48.202;16.310;2024-02-15T02:49:44;16.77;;;3.17;;
3735;SDS011;1883;48.202;16.310;2024-02-15T02:52:11;8.50;;;2.63;;
3735;SDS011;1883;48.202;16.310;2024-02-15T02:54:38;9.17;;;2.30;;
3735;SDS011;1883;48.202;16.310;2024-02-15T02:57:06;10.90;;;2.70;;
3735;SDS011;1883;48.202;16.310;2024-02-15T02:59:35;13.13;;;3.30;;
3735;SDS011;1883;48.202;16.310;2024-02-15T03:02:05;9.20;;;2.80;;
3735;SDS011;1883;48.202;16.310;2024-02-15T03:04:33;8.70;;;2.67;;
3735;SDS011;1883;48.202;16.310;2024-02-15T03:07:00;8.30;;;2.30;;
3735;SDS011;1883;48.202;16.310;2024-02-15T03:09:27;10.17;;;2.80;;
3735;SDS011;1883;48.202;16.310;2024-02-15T03:11:54;20.23;;;3.20;;
3735;SDS011;1883;48.202;16.310;2024-02-15T03:14:22;11.17;;;2.70;;
3735;SDS011;1883;48.202;16.310;2024-02-15T03:16:51;11.30;;;3.27;;
3735;SDS011;1883;48.202;16.310;2024-02-15T03:19:20;19.63;;;3.00;;
3735;SDS011;1883;48.202;16.310;2024-02-15T03:21:48;8.47;;;2.20;;
3735;SDS011;1883;48.202;16.310;2024-02-15T03:24:15;7.53;;;2.57;;
3735;SDS011;1883;48.202;16.310;2024-02-15T03:26:42;7.53;;;2.47;;
3735;SDS011;1883;48.202;16.310;2024-02-15T03:29:11;8.43;;;2.60;;
3735;SDS011;1883;48.202;16.310;2024-02-15T03:31:39;11.57;;;2.67;;
3735;SDS011;1883;48.202;16.310;2024-02-15T03:56:21;9.60;;;2.77;;
3735;SDS011;1883;48.202;16.310;2024-02-15T03:59:02;13.70;;;2.27;;
3735;SDS011;1883;48.202;16.310;2024-02-15T04:01:44;6.57;;;2.20;;
3735;SDS011;1883;48.202;16.310;2024-02-15T04:04:25;15.27;;;3.27;;
3735;SDS011;1883;48.202;16.310;2024-02-15T04:07:07;11.63;;;2.97;;
3735;SDS011;1883;48.202;16.310;2024-02-15T04:12:56;8.73;;;2.30;;
3735;SDS011;1883;48.202;16.310;2024-02-15T04:15:46;9.20;;;2.10;;
3735;SDS011;1883;48.202;16.310;2024-02-15T04:19:22;10.40;;;2.93;;
3735;SDS011;1883;48.202;16.310;2024-02-15T04:22:03;7.50;;;2.37;;
3735;SDS011;1883;48.202;16.310;2024-02-15T04:24:44;12.43;;;2.97;;
3735;SDS011;1883;48.202;16.310;2024-02-15T04:27:23;13.03;;;3.20;;
3735;SDS011;1883;48.202;16.310;2024-02-15T04:29:50;9.07;;;2.40;;
3735;SDS011;1883;48.202;16.310;2024-02-15T04:32:17;12.33;;;3.07;;
3735;SDS011;1883;48.202;16.310;2024-02-15T04:34:54;8.07;;;2.30;;
3735;SDS011;1883;48.202;16.310;2024-02-15T04:37:31;10.60;;;2.90;;
3735;SDS011;1883;48.202;16.310;2024-02-15T04:40:00;11.90;;;3.37;;
3735;SDS011;1883;48.202;16.310;2024-02-15T04:42:35;10.77;;;2.80;;
3735;SDS011;1883;48.202;16.310;2024-02-15T04:45:03;10.60;;;2.70;;
3735;SDS011;1883;48.202;16.310;2024-02-15T04:47:33;9.70;;;2.40;;
3735;SDS011;1883;48.202;16.310;2024-02-15T04:50:00;7.53;;;2.20;;
3735;SDS011;1883;48.202;16.310;2024-02-15T04:52:27;14.23;;;2.83;;
3735;SDS011;1883;48.202;16.310;2024-02-15T04:54:56;8.87;;;2.80;;
3735;SDS011;1883;48.202;16.310;2024-02-15T04:57:23;10.83;;;3.20;;
3735;SDS011;1883;48.202;16.310;2024-02-15T04:59:54;11.27;;;2.80;;
3735;SDS011;1883;48.202;16.310;2024-02-15T05:02:21;12.30;;;3.33;;
3735;SDS011;1883;48.202;16.310;2024-02-15T05:04:49;10.13;;;3.20;;
3735;SDS011;1883;48.202;16.310;2024-02-15T05:07:20;16.60;;;3.43;;
3735;SDS011;1883;48.202;16.310;2024-02-15T05:09:47;12.20;;;4.27;;
3735;SDS011;1883;48.202;16.310;2024-02-15T05:12:21;10.80;;;3.00;;
3735;SDS011;1883;48.202;16.310;2024-02-15T05:14:49;12.30;;;3.17;;
3735;SDS011;1883;48.202;16.310;2024-02-15T05:17:20;17.37;;;5.20;;
3735;SDS011;1883;48.202;16.310;2024-02-15T05:19:48;13.00;;;3.17;;
3735;SDS011;1883;48.202;16.310;2024-02-15T05:22:15;12.97;;;2.90;;
3735;SDS011;1883;48.202;16.310;2024-02-15T05:24:43;13.43;;;3.33;;
3735;SDS011;1883;48.202;16.310;2024-02-15T05:27:11;12.33;;;3.10;;
3735;SDS011;1883;48.202;16.310;2024-02-15T05:29:38;10.17;;;3.00;;
3735;SDS011;1883;48.202;16.310;2024-02-15T05:32:08;17.23;;;3.30;;
3735;SDS011;1883;48.202;16.310;2024-02-15T05:40:43;15.23;;;4.30;;
3735;SDS011;1883;48.202;16.310;2024-02-15T05:43:24;20.83;;;4.50;;
3735;SDS011;1883;48.202;16.310;2024-02-15T05:46:01;15.90;;;4.87;;
3735;SDS011;1883;48.202;16.310;2024-02-15T05:48:30;14.30;;;4.67;;
3735;SDS011;1883;48.202;16.310;2024-02-15T05:51:00;13.53;;;4.30;;
3735;SDS011;1883;48.202;16.310;2024-02-15T05:53:35;15.60;;;5.17;;
3735;SDS011;1883;48.202;16.310;2024-02-15T05:56:04;14.30;;;4.53;;
3735;SDS011;1883;48.202;16.310;2024-02-15T05:58:33;24.23;;;5.30;;
3735;SDS011;1883;48.202;16.310;2024-02-15T06:01:03;23.37;;;6.50;;
3735;SDS011;1883;48.202;16.310;2024-02-15T06:03:37;25.43;;;4.20;;
3735;SDS011;1883;48.202;16.310;2024-02-15T06:06:05;13.83;;;4.27;;
3735;SDS011;1883;48.202;16.310;2024-02-15T06:08:36;16.53;;;4.97;;
3735;SDS011;1883;48.202;16.310;2024-02-15T06:11:10;12.90;;;3.90;;
3735;SDS011;1883;48.202;16.310;2024-02-15T06:13:53;12.33;;;4.10;;
3735;SDS011;1883;48.202;16.310;2024-02-15T06:16:19;14.03;;;4.37;;
3735;SDS011;1883;48.202;16.310;2024-02-15T06:18:47;13.07;;;4.63;;
3735;SDS011;1883;48.202;16.310;2024-02-15T06:22:04;13.80;;;4.57;;
3735;SDS011;1883;48.202;16.310;2024-02-15T06:24:33;17.90;;;4.97;;
3735;SDS011;1883;48.202;16.310;2024-02-15T06:27:03;12.20;;;3.70;;
3735;SDS011;1883;48.202;16.310;2024-02-15T06:29:30;15.83;;;5.07;;
3735;SDS011;1883;48.202;16.310;2024-02-15T06:32:17;13.47;;;5.00;;
3735;SDS011;1883;48.202;16.310;2024-02-15T06:35:03;11.77;;;4.13;;
3735;SDS011;1883;48.202;16.310;2024-02-15T06:38:04;14.23;;;4.30;;
3735;SDS011;1883;48.202;16.310;2024-02-15T06:41:03;13.90;;;4.40;;
3735;SDS011;1883;48.202;16.310;2024-02-15T06:43:47;11.50;;;4.03;;
3735;SDS011;1883;48.202;16.310;2024-02-15T06:46:30;18.57;;;5.10;;
3735;SDS011;1883;48.202;16.310;2024-02-15T06:49:39;14.40;;;4.10;;
3735;SDS011;1883;48.202;16.310;2024-02-15T07:38:49;14.23;;;5.50;;
3735;SDS011;1883;48.202;16.310;2024-02-15T07:41:38;19.40;;;5.20;;
3735;SDS011;1883;48.202;16.310;2024-02-15T07:45:24;12.47;;;5.50;;
3735;SDS011;1883;48.202;16.310;2024-02-15T07:48:06;14.67;;;5.23;;
3735;SDS011;1883;48.202;16.310;2024-02-15T09:16:09;20.60;;;8.30;;
3735;SDS011;1883;48.202;16.310;2024-02-15T09:18:49;22.17;;;8.43;;
3735;SDS011;1883;48.202;16.310;2024-02-15T09:21:27;20.03;;;7.60;;
3735;SDS011;1883;48.202;16.310;2024-02-15T09:24:02;24.07;;;8.23;;
3735;SDS011;1883;48.202;16.310;2024-02-15T09:26:45;21.20;;;8.37;;
3735;SDS011;1883;48.202;16.310;2024-02-15T09:29:15;23.63;;;8.53;;
3735;SDS011;1883;48.202;16.310;2024-02-15T09:56:25;18.80;;;7.43;;
3735;SDS011;1883;48.202;16.310;2024-02-15T09:59:11;16.50;;;7.13;;
3735;SDS011;1883;48.202;16.310;2024-02-15T10:01:58;24.40;;;6.23;;
3735;SDS011;1883;48.202;16.310;2024-02-15T10:04:55;18.53;;;7.33;;
3735;SDS011;1883;48.202;16.310;2024-02-15T10:07:24;17.73;;;6.67;;
3735;SDS011;1883;48.202;16.310;2024-02-15T10:10:14;25.63;;;6.80;;
3735;SDS011;1883;48.202;16.310;2024-02-15T10:17:06;21.37;;;6.40;;
3735;SDS011;1883;48.202;16.310;2024-02-15T10:20:02;25.90;;;6.83;;
3735;SDS011;1883;48.202;16.310;2024-02-15T10:22:53;15.23;;;6.60;;
3735;SDS011;1883;48.202;16.310;2024-02-15T10:26:47;16.30;;;5.90;;
3735;SDS011;1883;48.202;16.310;2024-02-15T10:29:42;28.13;;;7.33;;
3735;SDS011;1883;48.202;16.310;2024-02-15T10:35:31;18.87;;;6.83;;
3735;SDS011;1883;48.202;16.310;2024-02-15T10:38:07;15.00;;;5.80;;
3735;SDS011;1883;48.202;16.310;2024-02-15T10:40:40;17.70;;;6.50;;
3735;SDS011;1883;48.202;16.310;2024-02-15T10:43:15;21.10;;;6.93;;
3735;SDS011;1883;48.202;16.310;2024-02-15T10:45:47;17.43;;;6.80;;
3735;SDS011;1883;48.202;16.310;2024-02-15T10:48:25;18.10;;;7.53;;
3735;SDS011;1883;48.202;16.310;2024-02-15T10:57:24;16.17;;;7.20;;
3735;SDS011;1883;48.202;16.310;2024-02-15T10:59:55;29.17;;;6.50;;
3735;SDS011;1883;48.202;16.310;2024-02-15T11:02:26;15.33;;;5.90;;
3735;SDS011;1883;48.202;16.310;2024-02-15T11:05:02;28.93;;;7.50;;
3735;SDS011;1883;48.202;16.310;2024-02-15T11:07:35;30.30;;;6.97;;
3735;SDS011;1883;48.202;16.310;2024-02-15T11:10:06;13.07;;;5.73;;
3735;SDS011;1883;48.202;16.310;2024-02-15T11:12:45;13.17;;;5.23;;
3735;SDS011;1883;48.202;16.310;2024-02-15T11:15:16;17.17;;;5.17;;
3735;SDS011;1883;48.202;16.310;2024-02-15T11:18:07;16.03;;;5.20;;
3735;SDS011;1883;48.202;16.310;2024-02-15T11:20:46;15.90;;;5.00;;
3735;SDS011;1883;48.202;16.310;2024-02-15T11:23:26;19.90;;;4.67;;
3735;SDS011;1883;48.202;16.310;2024-02-15T11:32:05;14.37;;;4.13;;
3735;SDS011;1883;48.202;16.310;2024-02-15T11:34:42;10.97;;;4.07;;
3735;SDS011;1883;48.202;16.310;2024-02-15T11:40:17;14.37;;;4.90;;
3735;SDS011;1883;48.202;16.310;2024-02-15T11:42:52;17.97;;;7.10;;
3735;SDS011;1883;48.202;16.310;2024-02-15T11:45:20;12.17;;;4.20;;
3735;SDS011;1883;48.202;16.310;2024-02-15T11:47:53;12.20;;;4.67;;
3735;SDS011;1883;48.202;16.310;2024-02-15T11:50:22;12.30;;;4.10;;
3735;SDS011;1883;48.202;16.310;2024-02-15T11:52:50;9.00;;;3.10;;
3735;SDS011;1883;48.202;16.310;2024-02-15T11:55:38;14.33;;;3.93;;
3735;SDS011;1883;48.202;16.310;2024-02-15T11:58:08;12.60;;;3.63;;
3735;SDS011;1883;48.202;16.310;2024-02-15T12:00:52;17.60;;;5.30;;
3735;SDS011;1883;48.202;16.310;2024-02-15T12:03:44;17.93;;;4.10;;
3735;SDS011;1883;48.202;16.310;2024-02-15T12:06:29;12.37;;;4.03;;
3735;SDS011;1883;48.202;16.310;2024-02-15T12:09:17;8.53;;;2.00;;
3735;SDS011;1883;48.202;16.310;2024-02-15T12:12:01;9.23;;;1.90;;
3735;SDS011;1883;48.202;16.310;2024-02-15T12:14:47;19.33;;;2.43;;
3735;SDS011;1883;48.202;16.310;2024-02-15T12:17:33;7.30;;;1.77;;
3735;SDS011;1883;48.202;16.310;2024-02-15T12:20:20;15.23;;;5.67;;
3735;SDS011;1883;48.202;16.310;2024-02-15T12:22:50;9.13;;;2.40;;
3735;SDS011;1883;48.202;16.310;2024-02-15T12:25:20;9.70;;;1.97;;
3735;SDS011;1883;48.202;16.310;2024-02-15T12:27:52;9.10;;;2.70;;
3735;SDS011;1883;48.202;16.310;2024-02-15T12:30:20;8.33;;;2.67;;
3735;SDS011;1883;48.202;16.310;2024-02-15T12:32:51;19.07;;;5.10;;
3735;SDS011;1883;48.202;16.310;2024-02-15T12:36:02;11.93;;;3.73;;
3735;SDS011;1883;48.202;16.310;2024-02-15T12:38:32;13.63;;;3.30;;
3735;SDS011;1883;48.202;16.310;2024-02-15T12:41:03;12.80;;;3.33;;
3735;SDS011;1883;48.202;16.310;2024-02-15T12:43:44;12.53;;;4.33;;
3735;SDS011;1883;48.202;16.310;2024-02-15T12:46:17;14.80;;;5.13;;
3735;SDS011;1883;48.202;16.310;2024-02-15T12:49:09;11.50;;;4.37;;
3735;SDS011;1883;48.202;16.310;2024-02-15T12:51:49;16.67;;;5.00;;
3735;SDS011;1883;48.202;16.310;2024-02-15T12:54:22;13.60;;;4.93;;
3735;SDS011;1883;48.202;16.310;2024-02-15T12:56:53;20.73;;;5.60;;
3735;SDS011;1883;48.202;16.310;2024-02-15T12:59:35;23.77;;;5.23;;
3735;SDS011;1883;48.202;16.310;2024-02-15T13:02:03;20.67;;;6.33;;
3735;SDS011;1883;48.202;16.310;2024-02-15T13:04:31;12.63;;;5.03;;
3735;SDS011;1883;48.202;16.310;2024-02-15T13:07:04;15.27;;;5.00;;
3735;SDS011;1883;48.202;16.310;2024-02-15T13:09:33;12.50;;;4.63;;
3735;SDS011;1883;48.202;16.310;2024-02-15T13:12:00;15.17;;;5.40;;
3735;SDS011;1883;48.202;16.310;2024-02-15T13:14:29;14.60;;;5.10;;
3735;SDS011;1883;48.202;16.310;2024-02-15T13:17:04;14.20;;;5.63;;
3735;SDS011;1883;48.202;16.310;2024-02-15T13:19:36;15.20;;;6.00;;
3735;SDS011;1883;48.202;16.310;2024-02-15T13:22:07;20.70;;;6.57;;
3735;SDS011;1883;48.202;16.310;2024-02-15T13:24:48;21.60;;;6.70;;
3735;SDS011;1883;48.202;16.310;2024-02-15T13:27:17;16.27;;;7.43;;
3735;SDS011;1883;48.202;16.310;2024-02-15T13:29:49;16.87;;;6.90;;
3735;SDS011;1883;48.202;16.310;2024-02-15T13:32:16;18.90;;;7.43;;
3735;SDS011;1883;48.202;16.310;2024-02-15T13:34:46;13.23;;;6.03;;
3735;SDS011;1883;48.202;16.310;2024-02-15T13:37:31;20.10;;;6.60;;
3735;SDS011;1883;48.202;16.310;2024-02-15T13:40:03;13.90;;;5.83;;
3735;SDS011;1883;48.202;16.310;2024-02-15T13:42:40;16.77;;;4.97;;
3735;SDS011;1883;48.202;16.310;2024-02-15T13:45:15;14.20;;;5.20;;
3735;SDS011;1883;48.202;16.310;2024-02-15T13:47:59;15.10;;;5.10;;
3735;SDS011;1883;48.202;16.310;2024-02-15T13:50:58;13.60;;;5.57;;
3735;SDS011;1883;48.202;16.310;2024-02-15T13:54:25;19.00;;;5.80;;
3735;SDS011;1883;48.202;16.310;2024-02-15T13:57:07;12.03;;;4.90;;
3735;SDS011;1883;48.202;16.310;2024-02-15T13:59:41;17.47;;;5.47;;
3735;SDS011;1883;48.202;16.310;2024-02-15T14:02:10;16.60;;;5.83;;
3735;SDS011;1883;48.202;16.310;2024-02-15T14:04:37;12.43;;;4.43;;
3735;SDS011;1883;48.202;16.310;2024-02-15T14:07:06;32.43;;;5.10;;
3735;SDS011;1883;48.202;16.310;2024-02-15T14:12:27;19.60;;;5.30;;
3735;SDS011;1883;48.202;16.310;2024-02-15T14:14:57;15.10;;;5.00;;
3735;SDS011;1883;48.202;16.310;2024-02-15T14:17:26;14.40;;;4.60;;
3735;SDS011;1883;48.202;16.310;2024-02-15T14:20:27;17.20;;;4.93;;
3735;SDS011;1883;48.202;16.310;2024-02-15T14:23:13;19.07;;;6.10;;
3735;SDS011;1883;48.202;16.310;2024-02-15T14:25:44;13.97;;;5.43;;
3735;SDS011;1883;48.202;16.310;2024-02-15T14:28:11;15.80;;;5.10;;
3735;SDS011;1883;48.202;16.310;2024-02-15T14:30:44;14.00;;;5.50;;
3735;SDS011;1883;48.202;16.310;2024-02-15T14:33:30;18.40;;;6.00;;
3735;SDS011;1883;48.202;16.310;2024-02-15T14:35:58;14.80;;;6.30;;
3735;SDS011;1883;48.202;16.310;2024-02-15T14:38:42;21.33;;;6.77;;
3735;SDS011;1883;48.202;16.310;2024-02-15T14:44:09;15.90;;;5.90;;
3735;SDS011;1883;48.202;16.310;2024-02-15T14:46:38;18.53;;;7.93;;
3735;SDS011;1883;48.202;16.310;2024-02-15T14:49:13;19.63;;;6.13;;
3735;SDS011;1883;48.202;16.310;2024-02-15T14:51:48;20.50;;;5.53;;
3735;SDS011;1883;48.202;16.310;2024-02-15T14:54:29;34.63;;;6.60;;
3735;SDS011;1883;48.202;16.310;2024-02-15T14:57:09;22.03;;;5.67;;
3735;SDS011;1883;48.202;16.310;2024-02-15T14:59:37;20.83;;;5.90;;
3735;SDS011;1883;48.202;16.310;2024-02-15T15:02:08;23.33;;;5.90;;
3735;SDS011;1883;48.202;16.310;2024-02-15T15:04:35;18.77;;;5.83;;
3735;SDS011;1883;48.202;16.310;2024-02-15T15:07:22;24.87;;;6.13;;
3735;SDS011;1883;48.202;16.310;2024-02-15T15:10:10;21.80;;;6.10;;
3735;SDS011;1883;48.202;16.310;2024-02-15T15:13:00;20.70;;;5.80;;
3735;SDS011;1883;48.202;16.310;2024-02-15T15:15:44;18.73;;;6.00;;
3735;SDS011;1883;48.202;16.310;2024-02-15T15:18:16;16.10;;;6.47;;
3735;SDS011;1883;48.202;16.310;2024-02-15T15:20:44;19.77;;;6.33;;
3735;SDS011;1883;48.202;16.310;2024-02-15T15:23:12;16.83;;;6.17;;
3735;SDS011;1883;48.202;16.310;2024-02-15T15:25:42;19.67;;;6.60;;
3735;SDS011;1883;48.202;16.310;2024-02-15T15:28:19;20.67;;;7.13;;
3735;SDS011;1883;48.202;16.310;2024-02-15T15:30:52;20.33;;;7.80;;
3735;SDS011;1883;48.202;16.310;2024-02-15T15:34:02;26.40;;;9.10;;
3735;SDS011;1883;48.202;16.310;2024-02-15T15:36:43;48.23;;;10.60;;
3735;SDS011;1883;48.202;16.310;2024-02-15T15:39:15;29.83;;;11.40;;
3735;SDS011;1883;48.202;16.310;2024-02-15T15:41:45;25.17;;;9.70;;
3735;SDS011;1883;48.202;16.310;2024-02-15T15:44:16;26.13;;;10.40;;
3735;SDS011;1883;48.202;16.310;2024-02-15T15:46:57;25.97;;;10.10;;
3735;SDS011;1883;48.202;16.310;2024-02-15T15:49:26;27.53;;;10.40;;
3735;SDS011;1883;48.202;16.310;2024-02-15T15:51:56;36.20;;;12.07;;
3735;SDS011;1883;48.202;16.310;2024-02-15T15:54:40;30.33;;;11.57;;
3735;SDS011;1883;48.202;16.310;2024-02-15T15:57:10;38.20;;;13.00;;
3735;SDS011;1883;48.202;16.310;2024-02-15T15:59:40;29.90;;;11.37;;
3735;SDS011;1883;48.202;16.310;2024-02-15T16:02:09;30.20;;;12.53;;
3735;SDS011;1883;48.202;16.310;2024-02-15T16:04:42;30.37;;;11.73;;
3735;SDS011;1883;48.202;16.310;2024-02-15T16:07:11;40.43;;;12.80;;
3735;SDS011;1883;48.202;16.310;2024-02-15T16:09:40;78.87;;;14.73;;
3735;SDS011;1883;48.202;16.310;2024-02-15T16:12:10;31.33;;;13.20;;
3735;SDS011;1883;48.202;16.310;2024-02-15T16:14:38;37.53;;;13.80;;
3735;SDS011;1883;48.202;16.310;2024-02-15T16:17:12;46.93;;;13.73;;
3735;SDS011;1883;48.202;16.310;2024-02-15T16:19:40;38.20;;;15.77;;
3735;SDS011;1883;48.202;16.310;2024-02-15T16:22:13;34.13;;;14.20;;
3735;SDS011;1883;48.202;16.310;2024-02-15T16:24:43;56.33;;;18.47;;
3735;SDS011;1883;48.202;16.310;2024-02-15T16:27:12;33.27;;;14.83;;
3735;SDS011;1883;48.202;16.310;2024-02-15T16:29:44;33.13;;;14.70;;
3735;SDS011;1883;48.202;16.310;2024-02-15T16:32:13;43.30;;;15.33;;
3735;SDS011;1883;48.202;16.310;2024-02-15T16:34:40;40.10;;;17.60;;
3735;SDS011;1883;48.202;16.310;2024-02-15T16:37:09;41.83;;;17.37;;
3735;SDS011;1883;48.202;16.310;2024-02-15T16:39:50;49.30;;;18.80;;
3735;SDS011;1883;48.202;16.310;2024-02-15T16:42:20;42.87;;;18.00;;
3735;SDS011;1883;48.202;16.310;2024-02-15T16:44:50;40.50;;;18.23;;
3735;SDS011;1883;48.202;16.310;2024-02-15T16:47:17;47.07;;;17.40;;
3735;SDS011;1883;48.202;16.310;2024-02-15T16:49:46;41.10;;;17.47;;
3735;SDS011;1883;48.202;16.310;2024-02-15T16:52:18;51.40;;;17.87;;
3735;SDS011;1883;48.202;16.310;2024-02-15T16:54:45;42.37;;;16.87;;
3735;SDS011;1883;48.202;16.310;2024-02-15T17:09:41;37.60;;;17.17;;
3735;SDS011;1883;48.202;16.310;2024-02-15T17:12:16;48.37;;;18.40;;
3735;SDS011;1883;48.202;16.310;2024-02-15T17:15:00;49.23;;;20.23;;
3735;SDS011;1883;48.202;16.310;2024-02-15T17:17:33;56.00;;;22.63;;
3735;SDS011;1883;48.202;16.310;2024-02-15T17:20:03;49.17;;;22.20;;
3735;SDS011;1883;48.202;16.310;2024-02-15T17:22:39;52.90;;;23.30;;
3735;SDS011;1883;48.202;16.310;2024-02-15T17:25:14;56.10;;;24.80;;
3735;SDS011;1883;48.202;16.310;2024-02-15T17:27:47;56.93;;;25.00;;
3735;SDS011;1883;48.202;16.310;2024-02-15T17:30:15;67.90;;;26.70;;
3735;SDS011;1883;48.202;16.310;2024-02-15T17:32:59;62.03;;;24.40;;
3735;SDS011;1883;48.202;16.310;2024-02-15T17:35:32;61.73;;;25.10;;
3735;SDS011;1883;48.202;16.310;2024-02-15T17:38:01;66.33;;;24.07;;
3735;SDS011;1883;48.202;16.310;2024-02-15T17:40:33;59.70;;;24.30;;
3735;SDS011;1883;48.202;16.310;2024-02-15T17:43:03;69.67;;;24.63;;
3735;SDS011;1883;48.202;16.310;2024-02-15T17:45:44;56.37;;;24.73;;
3735;SDS011;1883;48.202;16.310;2024-02-15T17:48:12;64.23;;;24.83;;
3735;SDS011;1883;48.202;16.310;2024-02-15T17:50:50;54.23;;;24.57;;
3735;SDS011;1883;48.202;16.310;2024-02-15T17:53:25;60.13;;;24.40;;
3735;SDS011;1883;48.202;16.310;2024-02-15T17:56:27;56.60;;;24.70;;
3735;SDS011;1883;48.202;16.310;2024-02-15T17:59:23;68.23;;;25.73;;
3735;SDS011;1883;48.202;16.310;2024-02-15T18:01:58;56.13;;;24.47;;
3735;SDS011;1883;48.202;16.310;2024-02-15T18:04:25;55.90;;;25.10;;
3735;SDS011;1883;48.202;16.310;2024-02-15T18:07:09;61.13;;;25.10;;
3735;SDS011;1883;48.202;16.310;2024-02-15T18:09:44;59.90;;;26.03;;
3735;SDS011;1883;48.202;16.310;2024-02-15T18:15:14;57.23;;;25.77;;
3735;SDS011;1883;48.202;16.310;2024-02-15T18:17:59;58.43;;;27.23;;
3735;SDS011;1883;48.202;16.310;2024-02-15T18:20:34;69.03;;;28.60;;
3735;SDS011;1883;48.202;16.310;2024-02-15T18:23:17;79.53;;;29.30;;
3735;SDS011;1883;48.202;16.310;2024-02-15T18:25:48;72.03;;;30.03;;
3735;SDS011;1883;48.202;16.310;2024-02-15T18:41:52;78.27;;;31.10;;
3735;SDS011;1883;48.202;16.310;2024-02-15T18:47:36;61.70;;;30.20;;
3735;SDS011;1883;48.202;16.310;2024-02-15T18:50:43;67.23;;;30.73;;
3735;SDS011;1883;48.202;16.310;2024-02-15T18:53:27;64.90;;;30.80;;
3735;SDS011;1883;48.202;16.310;2024-02-15T18:56:04;69.67;;;30.67;;
3735;SDS011;1883;48.202;16.310;2024-02-15T19:20:53;71.20;;;33.83;;
3735;SDS011;1883;48.202;16.310;2024-02-15T19:23:45;71.13;;;35.00;;
3735;SDS011;1883;48.202;16.310;2024-02-15T19:26:16;72.63;;;34.17;;
3735;SDS011;1883;48.202;16.310;2024-02-15T19:28:49;89.70;;;35.63;;
3735;SDS011;1883;48.202;16.310;2024-02-15T19:34:47;83.83;;;33.73;;
3735;SDS011;1883;48.202;16.310;2024-02-15T19:37:42;87.73;;;34.10;;
3735;SDS011;1883;48.202;16.310;2024-02-15T19:43:27;81.77;;;34.67;;
3735;SDS011;1883;48.202;16.310;2024-02-15T19:46:32;71.73;;;30.73;;
3735;SDS011;1883;48.202;16.310;2024-02-15T22:48:34;66.93;;;21.50;;
3735;SDS011;1883;48.202;16.310;2024-02-15T22:51:19;53.83;;;21.70;;
3735;SDS011;1883;48.202;16.310;2024-02-15T22:53:48;47.90;;;20.70;;
3735;SDS011;1883;48.202;16.310;2024-02-15T22:56:18;49.53;;;22.60;;
3735;SDS011;1883;48.202;16.310;2024-02-15T22:58:47;49.57;;;21.90;;
3735;SDS011;1883;48.202;16.310;2024-02-15T23:01:16;52.80;;;22.80;;
3735;SDS011;1883;48.202;16.310;2024-02-15T23:06:38;50.60;;;20.57;;
3735;SDS011;1883;48.202;16.310;2024-02-15T23:09:06;57.47;;;22.13;;
3735;SDS011;1883;48.202;16.310;2024-02-15T23:11:42;74.83;;;21.60;;
3735;SDS011;1883;48.202;16.310;2024-02-15T23:14:15;58.13;;;22.33;;